Latest Weather Observations for North Head

IDN60901

Issued at 12:41 pm EST Thursday 1 October 2020 (issued every 10 minutes, with the page automatically refreshed every 10 minutes)

About weather observations | Map of Sydney area stations | Latest observations for Sydney area | Other Formats
Station Details ID: 066197 Name: NORTH HEAD Lat: -33.82 Lon: 151.30 Height: 90.0 m
Data from the previous 72 hours. | See also: Recent months at North Head
Date/Time
EST
Temp
°C
App
Temp
°C
Dew
Point
°C
Rel
Hum
%
Delta-T
°C
Wind Press
QNH
hPa
Press
MSL
hPa
Rain since
9am
mm
Dir  Spd
km/h
Gust
km/h
Spd
kts
Gust
kts
01/12:30pm - - - - - ESE 15 20 8 11 - - -
01/12:00pm - - - - - E 7 13 4 7 - - -
01/11:30am - - - - - SW 7 17 4 9 - - -
01/11:00am - - - - - SE 11 15 6 8 - - -
01/10:30am - - - - - S 11 20 6 11 - - -
01/10:00am - - - - - SW 9 15 5 8 - - -
01/09:30am - - - - - ESE 6 9 3 5 - - -
01/09:00am - - - - - WNW 7 9 4 5 - - -
01/08:30am - - - - - WNW 7 13 4 7 - - -
01/08:00am - - - - - WNW 6 9 3 5 - - -
01/07:30am - - - - - WNW 7 11 4 6 - - -
01/07:00am - - - - - WNW 9 15 5 8 - - -
01/06:30am - - - - - NW 9 17 5 9 - - -
01/06:00am - - - - - NW 15 24 8 13 - - -
01/05:30am - - - - - NNW 13 20 7 11 - - -
01/05:00am - - - - - N 13 20 7 11 - - -
01/04:30am - - - - - NNW 11 17 6 9 - - -
01/04:00am - - - - - N 15 24 8 13 - - -
01/03:30am - - - - - N 13 24 7 13 - - -
01/03:00am - - - - - N 9 15 5 8 - - -
01/02:30am - - - - - NW 9 17 5 9 - - -
01/02:00am - - - - - N 11 17 6 9 - - -
01/01:30am - - - - - N 13 20 7 11 - - -
01/01:00am - - - - - N 17 22 9 12 - - -
01/12:30am - - - - - N 13 20 7 11 - - -
01/12:00am - - - - - N 11 19 6 10 - - -
 
Date/Time
EST
Temp
°C
App
Temp
°C
Dew
Point
°C
Rel
Hum
%
Delta-T
°C
Wind Press
QNH
hPa
Press
MSL
hPa
Rain since
9am
mm
Dir  Spd
km/h
Gust
km/h
Spd
kts
Gust
kts
30/11:30pm - - - - - N 17 24 9 13 - - -
30/11:00pm - - - - - N 19 32 10 17 - - -
30/10:30pm - - - - - N 15 24 8 13 - - -
30/10:00pm - - - - - N 17 28 9 15 - - -
30/09:30pm - - - - - N 17 24 9 13 - - -
30/09:00pm - - - - - N 15 24 8 13 - - -
30/08:30pm - - - - - N 17 26 9 14 - - -
30/08:00pm - - - - - N 15 26 8 14 - - -
30/07:30pm - - - - - N 15 20 8 11 - - -
30/07:00pm - - - - - N 15 24 8 13 - - -
30/06:30pm - - - - - NNE 15 24 8 13 - - -
30/06:00pm - - - - - N 13 20 7 11 - - -
30/05:30pm - - - - - N 15 24 8 13 - - -
30/05:00pm - - - - - N 15 20 8 11 - - -
30/04:30pm - - - - - NNE 19 28 10 15 - - -
30/04:00pm - - - - - NNE 17 30 9 16 - - -
30/03:30pm - - - - - NNE 13 22 7 12 - - -
30/03:00pm - - - - - NNE 17 26 9 14 - - -
30/02:30pm - - - - - NNE 17 26 9 14 - - -
30/02:00pm - - - - - NNE 17 26 9 14 - - -
30/01:30pm - - - - - NNE 15 24 8 13 - - -
30/01:00pm - - - - - NNE 17 24 9 13 - - -
30/12:30pm - - - - - NNE 17 24 9 13 - - -
30/12:00pm - - - - - NNE 13 24 7 13 - - -
30/11:30am - - - - - NE 13 20 7 11 - - -
30/11:00am - - - - - NNE 13 19 7 10 - - -
30/10:30am - - - - - NE 13 20 7 11 - - -
30/10:00am - - - - - NNE 11 19 6 10 - - -
30/09:30am - - - - - NNE 17 26 9 14 - - -
30/09:00am - - - - - NNE 15 24 8 13 - - -
30/08:30am - - - - - N 13 22 7 12 - - -
30/08:00am - - - - - N 11 17 6 9 - - -
30/07:30am - - - - - N 9 13 5 7 - - -
30/07:00am - - - - - N 7 11 4 6 - - -
30/06:30am - - - - - NNW 7 9 4 5 - - -
30/06:00am - - - - - N 7 11 4 6 - - -
30/05:30am - - - - - N 7 11 4 6 - - -
30/05:00am - - - - - N 7 13 4 7 - - -
30/04:30am - - - - - NNE 9 13 5 7 - - -
30/04:00am - - - - - N 7 9 4 5 - - -
30/03:30am - - - - - N 9 13 5 7 - - -
30/03:00am - - - - - N 7 13 4 7 - - -
30/02:30am - - - - - NNW 7 9 4 5 - - -
30/02:00am - - - - - NNW 9 13 5 7 - - -
30/01:30am - - - - - NNW 9 13 5 7 - - -
30/01:00am - - - - - N 7 11 4 6 - - -
30/12:30am - - - - - N 9 13 5 7 - - -
30/12:00am - - - - - N 11 19 6 10 - - -
 
Date/Time
EST
Temp
°C
App
Temp
°C
Dew
Point
°C
Rel
Hum
%
Delta-T
°C
Wind Press
QNH
hPa
Press
MSL
hPa
Rain since
9am
mm
Dir  Spd
km/h
Gust
km/h
Spd
kts
Gust
kts
29/11:30pm - - - - - N 11 17 6 9 - - -
29/11:00pm - - - - - N 13 20 7 11 - - -
29/10:30pm - - - - - N 15 24 8 13 - - -
29/10:00pm - - - - - NNE 19 28 10 15 - - -
29/09:30pm - - - - - NNE 17 28 9 15 - - -
29/09:00pm - - - - - NNE 17 28 9 15 - - -
29/08:30pm - - - - - NNE 17 26 9 14 - - -
29/08:00pm - - - - - NE 15 26 8 14 - - -
29/07:30pm - - - - - NE 17 24 9 13 - - -
29/07:00pm - - - - - NE 17 24 9 13 - - -
29/06:30pm - - - - - ENE 15 22 8 12 - - -
29/06:00pm - - - - - NE 15 24 8 13 - - -
29/05:30pm - - - - - ENE 15 24 8 13 - - -
29/05:00pm - - - - - ENE 13 20 7 11 - - -
29/04:30pm - - - - - ENE 11 20 6 11 - - -
29/04:00pm - - - - - ENE 13 19 7 10 - - -
29/03:30pm - - - - - ENE 13 20 7 11 - - -
29/03:00pm - - - - - E 13 22 7 12 - - -
29/02:30pm - - - - - ENE 15 22 8 12 - - -
29/02:00pm - - - - - E 13 19 7 10 - - -
29/01:30pm - - - - - E 13 19 7 10 - - -
29/01:00pm - - - - - ESE 13 19 7 10 - - -
29/12:30pm - - - - - ESE 15 22 8 12 - - -
29/12:00pm - - - - - ESE 13 19 7 10 - - -
29/11:30am - - - - - ESE 15 20 8 11 - - -
29/11:00am - - - - - ESE 13 19 7 10 - - -
29/10:30am - - - - - ESE 11 15 6 8 - - -
29/10:00am - - - - - SE 9 13 5 7 - - -
29/09:30am - - - - - ESE 7 13 4 7 - - -
29/09:00am - - - - - ESE 7 9 4 5 - - -
29/08:30am - - - - - ESE 6 9 3 5 - - -
29/08:00am - - - - - ESE 6 9 3 5 - - -
29/07:30am - - - - - ESE 6 7 3 4 - - -
29/07:00am - - - - - SE 6 9 3 5 - - -
29/06:30am - - - - - SSE 6 11 3 6 - - -
29/06:00am - - - - - SE 7 11 4 6 - - -
29/05:30am - - - - - SE 9 13 5 7 - - -
29/05:00am - - - - - ESE 7 11 4 6 - - -
29/04:30am - - - - - SE 9 17 5 9 - - -
29/04:00am - - - - - SSE 11 19 6 10 - - -
29/03:30am - - - - - SSE 11 17 6 9 - - -
29/03:00am - - - - - SE 9 17 5 9 - - -
29/02:30am - - - - - ESE 13 20 7 11 - - -
29/02:00am - - - - - ESE 11 19 6 10 - - -
29/01:30am - - - - - ESE 13 17 7 9 - - -
29/01:00am - - - - - ESE 15 20 8 11 - - -
29/12:30am - - - - - ESE 11 20 6 11 - - -
29/12:00am - - - - - SE 9 17 5 9 - - -
 
Date/Time
EST
Temp
°C
App
Temp
°C
Dew
Point
°C
Rel
Hum
%
Delta-T
°C
Wind Press
QNH
hPa
Press
MSL
hPa
Rain since
9am
mm
Dir  Spd
km/h
Gust
km/h
Spd
kts
Gust
kts
28/11:30pm - - - - - ESE 11 17 6 9 - - -
28/11:00pm - - - - - SE 11 20 6 11 - - -
28/10:30pm - - - - - ESE 13 20 7 11 - - -
28/10:00pm - - - - - ESE 13 20 7 11 - - -
28/09:30pm - - - - - ESE 13 20 7 11 - - -
28/09:00pm - - - - - ESE 15 20 8 11 - - -
28/08:30pm - - - - - ESE 13 20 7 11 - - -
28/08:00pm - - - - - E 9 15 5 8 - - -
28/07:30pm - - - - - E 9 15 5 8 - - -
28/07:00pm - - - - - ENE 11 19 6 10 - - -
28/06:30pm - - - - - ENE 11 20 6 11 - - -
28/06:00pm - - - - - ENE 13 20 7 11 - - -
28/05:30pm - - - - - ENE 11 17 6 9 - - -
28/05:00pm - - - - - ENE 13 20 7 11 - - -
28/04:30pm - - - - - ENE 11 20 6 11 - - -
28/04:00pm - - - - - ENE 15 22 8 12 - - -
28/03:30pm - - - - - ENE 13 24 7 13 - - -
28/03:00pm - - - - - ENE 13 22 7 12 - - -
28/02:30pm - - - - - ENE 15 20 8 11 - - -
28/02:00pm - - - - - ENE 15 20 8 11 - - -
28/01:30pm - - - - - ENE 13 20 7 11 - - -
28/01:00pm - - - - - E 13 20 7 11 - - -

Latest Capital City Observations: Canberra | Sydney | Melbourne | Brisbane | Adelaide | Perth | Hobart | Darwin

Other formats

Comma delimited format used in spreadsheet applications
http://www.bom.gov.au/fwo/IDN60901/IDN60901.95768.axf

JavaScript Object Notation format (JSON) in row-major order
http://www.bom.gov.au/fwo/IDN60901/IDN60901.95768.json

Data quality

Most of these data are generated automatically and are frequently updated. Quality checks on data are not normally performed. It is possible for incorrect values to appear. Refer to information at About Latest Weather Observations and please check the disclaimer before using these data.